createdAt,value
2022-10-13T00:01:28.929Z,1014.56
2022-10-13T00:02:28.466Z,1014.55
2022-10-13T00:04:32.475Z,1014.54
2022-10-13T00:05:32.487Z,1014.47
2022-10-13T00:07:36.971Z,1014.49
2022-10-13T00:08:36.507Z,1014.51
2022-10-13T00:10:40.517Z,1014.49
2022-10-13T00:11:40.526Z,1014.55
2022-10-13T00:13:45.008Z,1014.52
2022-10-13T00:14:44.541Z,1014.52
2022-10-13T00:16:48.553Z,1014.47
2022-10-13T00:17:48.556Z,1014.51
2022-10-13T00:19:53.052Z,1014.46
2022-10-13T00:20:52.580Z,1014.46
2022-10-13T00:22:45.518Z,1014.49
2022-10-13T00:23:45.527Z,1014.49
2022-10-13T00:25:50.014Z,1014.48
2022-10-13T00:26:49.567Z,1014.47
2022-10-13T00:28:53.616Z,1014.51
2022-10-13T00:29:53.574Z,1014.49
2022-10-13T00:31:58.061Z,1014.49
2022-10-13T00:32:57.592Z,1014.51
2022-10-13T00:35:01.617Z,1014.46
2022-10-13T00:36:01.614Z,1014.49
2022-10-13T00:38:06.103Z,1014.49
2022-10-13T00:39:05.638Z,1014.46
2022-10-13T00:40:05.656Z,1014.46
2022-10-13T00:41:05.811Z,1014.48
2022-10-13T00:42:05.693Z,1014.48
2022-10-13T00:43:05.712Z,1014.49
2022-10-13T00:44:05.749Z,1014.43
2022-10-13T00:45:05.756Z,1014.47
2022-10-13T00:46:05.773Z,1014.43
2022-10-13T00:47:05.797Z,1014.44
2022-10-13T00:48:05.816Z,1014.40
2022-10-13T00:49:05.839Z,1014.35
2022-10-13T00:50:05.866Z,1014.37
2022-10-13T00:51:05.879Z,1014.39
2022-10-13T00:52:05.895Z,1014.38
2022-10-13T00:53:05.932Z,1014.31
2022-10-13T00:54:05.940Z,1014.35
2022-10-13T00:55:05.964Z,1014.34
2022-10-13T00:56:05.983Z,1014.29
2022-10-13T00:57:06.005Z,1014.27
2022-10-13T00:58:06.018Z,1014.25
2022-10-13T00:59:06.040Z,1014.29
2022-10-13T01:00:06.065Z,1014.24
2022-10-13T01:01:06.116Z,1014.28
2022-10-13T01:02:06.105Z,1014.28
2022-10-13T01:03:06.122Z,1014.26
2022-10-13T01:04:06.184Z,1014.26
2022-10-13T01:05:06.161Z,1014.27
2022-10-13T01:06:06.181Z,1014.23
2022-10-13T01:07:06.203Z,1014.22
2022-10-13T01:08:06.227Z,1014.19
2022-10-13T01:09:06.254Z,1014.19
2022-10-13T01:10:06.266Z,1014.19
2022-10-13T01:11:06.289Z,1014.23
2022-10-13T01:12:06.304Z,1014.24
2022-10-13T01:13:06.330Z,1014.22
2022-10-13T01:14:06.347Z,1014.19
2022-10-13T01:15:06.367Z,1014.19
2022-10-13T01:16:06.391Z,1014.20
2022-10-13T01:17:06.408Z,1014.19
2022-10-13T01:18:06.431Z,1014.18
2022-10-13T01:19:06.450Z,1014.14
2022-10-13T01:20:06.466Z,1014.17
2022-10-13T01:21:06.489Z,1014.16
2022-10-13T01:22:06.513Z,1014.14
2022-10-13T01:23:06.533Z,1014.11
2022-10-13T01:24:06.549Z,1014.09
2022-10-13T01:25:06.573Z,1014.10
2022-10-13T01:26:06.587Z,1014.04
2022-10-13T01:27:06.612Z,1014.02
2022-10-13T01:28:06.635Z,1014.05
2022-10-13T01:29:06.658Z,1014.01
2022-10-13T01:30:06.674Z,1014.02
2022-10-13T01:31:06.694Z,1013.99
2022-10-13T01:32:06.712Z,1014.02
2022-10-13T01:33:06.733Z,1013.98
2022-10-13T01:34:06.758Z,1013.99
2022-10-13T01:35:06.780Z,1013.99
2022-10-13T01:36:06.795Z,1014.00
2022-10-13T01:37:06.818Z,1013.94
2022-10-13T01:38:06.835Z,1013.97
2022-10-13T01:39:06.856Z,1013.95
2022-10-13T01:40:06.882Z,1013.93
2022-10-13T01:41:06.903Z,1013.91
2022-10-13T01:42:06.918Z,1013.89
2022-10-13T01:43:06.942Z,1013.88
2022-10-13T01:44:06.960Z,1013.86
2022-10-13T01:45:06.985Z,1013.86
2022-10-13T01:46:07.002Z,1013.85
2022-10-13T01:47:07.025Z,1013.83
2022-10-13T01:48:07.043Z,1013.82
2022-10-13T01:49:07.065Z,1013.80
2022-10-13T01:50:07.085Z,1013.79
2022-10-13T01:51:07.104Z,1013.78
2022-10-13T01:52:07.124Z,1013.81
2022-10-13T01:53:07.151Z,1013.78
2022-10-13T01:54:07.168Z,1013.77
2022-10-13T01:55:07.188Z,1013.76
2022-10-13T01:56:07.206Z,1013.73
2022-10-13T01:57:07.229Z,1013.69
2022-10-13T01:58:07.249Z,1013.65
2022-10-13T01:59:07.268Z,1013.62
2022-10-13T02:00:07.291Z,1013.62
2022-10-13T02:01:07.397Z,1013.65
2022-10-13T02:02:07.329Z,1013.63
2022-10-13T02:03:07.350Z,1013.64
2022-10-13T02:04:07.386Z,1013.61
2022-10-13T02:05:07.393Z,1013.61
2022-10-13T02:06:07.418Z,1013.60
2022-10-13T02:07:07.437Z,1013.61
2022-10-13T02:08:07.455Z,1013.57
2022-10-13T02:09:07.474Z,1013.58
2022-10-13T02:10:07.496Z,1013.57
2022-10-13T02:11:07.512Z,1013.53
2022-10-13T02:12:07.548Z,1013.54
2022-10-13T02:13:07.557Z,1013.53
2022-10-13T02:14:07.577Z,1013.56
2022-10-13T02:15:07.600Z,1013.58
2022-10-13T02:16:07.621Z,1013.58
2022-10-13T02:17:07.647Z,1013.53
2022-10-13T02:18:07.660Z,1013.54
2022-10-13T02:19:07.683Z,1013.54
2022-10-13T02:20:07.698Z,1013.50
2022-10-13T02:21:07.717Z,1013.51
2022-10-13T02:22:07.739Z,1013.54
2022-10-13T02:23:07.759Z,1013.47
2022-10-13T02:24:07.781Z,1013.50
2022-10-13T02:25:07.804Z,1013.48
2022-10-13T02:26:07.821Z,1013.50
2022-10-13T02:27:07.845Z,1013.50
2022-10-13T02:28:07.864Z,1013.49
2022-10-13T02:29:07.886Z,1013.46
2022-10-13T02:30:07.903Z,1013.47
2022-10-13T02:31:07.922Z,1013.50
2022-10-13T02:32:07.945Z,1013.50
2022-10-13T02:33:07.969Z,1013.48
2022-10-13T02:34:08.005Z,1013.47
2022-10-13T02:35:08.009Z,1013.49
2022-10-13T02:36:08.027Z,1013.46
2022-10-13T02:37:08.053Z,1013.52
2022-10-13T02:38:08.068Z,1013.49
2022-10-13T02:39:08.092Z,1013.49
2022-10-13T02:40:08.111Z,1013.46
2022-10-13T02:41:08.131Z,1013.45
2022-10-13T02:42:08.158Z,1013.48
2022-10-13T02:43:08.171Z,1013.47
2022-10-13T02:44:08.194Z,1013.47
2022-10-13T02:45:08.214Z,1013.49
2022-10-13T02:46:08.239Z,1013.45
2022-10-13T02:47:08.255Z,1013.47
2022-10-13T02:48:08.282Z,1013.48
2022-10-13T02:49:08.300Z,1013.47
2022-10-13T02:50:08.330Z,1013.47
2022-10-13T02:51:08.339Z,1013.48
2022-10-13T02:52:08.362Z,1013.46
2022-10-13T02:53:08.385Z,1013.46
2022-10-13T02:54:08.404Z,1013.46
2022-10-13T02:55:08.422Z,1013.48
2022-10-13T02:56:08.460Z,1013.48
2022-10-13T02:57:08.463Z,1013.47
2022-10-13T02:58:08.487Z,1013.50
2022-10-13T02:59:08.528Z,1013.46
2022-10-13T03:00:08.543Z,1013.48
2022-10-13T03:01:08.576Z,1013.52
2022-10-13T03:02:08.570Z,1013.51
2022-10-13T03:03:08.590Z,1013.50
2022-10-13T03:04:08.756Z,1013.49
2022-10-13T03:05:08.636Z,1013.49
2022-10-13T03:06:08.655Z,1013.53
2022-10-13T03:07:08.677Z,1013.53
2022-10-13T03:08:08.697Z,1013.52
2022-10-13T03:09:08.718Z,1013.54
2022-10-13T03:10:08.738Z,1013.54
2022-10-13T03:11:08.763Z,1013.47
2022-10-13T03:12:08.784Z,1013.55
2022-10-13T03:13:08.805Z,1013.54
2022-10-13T03:14:08.833Z,1013.56
2022-10-13T03:15:08.844Z,1013.54
2022-10-13T03:16:08.871Z,1013.47
2022-10-13T03:17:13.285Z,1013.45
2022-10-13T03:18:08.907Z,1013.53
2022-10-13T03:19:08.932Z,1013.47
2022-10-13T03:20:08.950Z,1013.42
2022-10-13T03:21:08.975Z,1013.47
2022-10-13T03:22:09.000Z,1013.42
2022-10-13T03:23:09.031Z,1013.45
2022-10-13T03:24:09.050Z,1013.42
2022-10-13T03:25:09.059Z,1013.41
2022-10-13T03:26:09.077Z,1013.39
2022-10-13T03:27:09.101Z,1013.42
2022-10-13T03:28:09.120Z,1013.46
2022-10-13T03:29:09.142Z,1013.44
2022-10-13T03:30:09.162Z,1013.48
2022-10-13T03:31:09.181Z,1013.51
2022-10-13T03:32:09.204Z,1013.45
2022-10-13T03:33:09.224Z,1013.44
2022-10-13T03:34:09.246Z,1013.41
2022-10-13T03:35:09.298Z,1013.41
2022-10-13T03:36:09.295Z,1013.42
2022-10-13T03:37:09.313Z,1013.41
2022-10-13T03:38:09.336Z,1013.42
2022-10-13T03:39:09.361Z,1013.44
2022-10-13T03:40:09.372Z,1013.45
2022-10-13T03:41:09.395Z,1013.41
2022-10-13T03:42:09.418Z,1013.41
2022-10-13T03:43:09.436Z,1013.43
2022-10-13T03:44:09.460Z,1013.43
2022-10-13T03:45:09.479Z,1013.42
2022-10-13T03:46:09.510Z,1013.44
2022-10-13T03:47:09.523Z,1013.41
2022-10-13T03:48:09.544Z,1013.39
2022-10-13T03:49:09.568Z,1013.36
2022-10-13T03:50:09.589Z,1013.36
2022-10-13T03:51:09.605Z,1013.29
2022-10-13T03:52:09.627Z,1013.24
2022-10-13T03:53:09.650Z,1013.21
2022-10-13T03:54:09.669Z,1013.24
2022-10-13T03:55:09.692Z,1013.24
2022-10-13T03:56:09.710Z,1013.26
2022-10-13T03:57:09.732Z,1013.23
2022-10-13T03:58:09.754Z,1013.21
2022-10-13T03:59:09.776Z,1013.22
2022-10-13T04:00:09.797Z,1013.19
2022-10-13T04:01:09.818Z,1013.20
2022-10-13T04:02:09.839Z,1013.20
2022-10-13T04:03:09.862Z,1013.20
2022-10-13T04:04:09.882Z,1013.14
2022-10-13T04:05:09.918Z,1013.16
2022-10-13T04:06:09.924Z,1013.15
2022-10-13T04:07:09.945Z,1013.14
2022-10-13T04:08:09.966Z,1013.16
2022-10-13T04:09:10.000Z,1013.15
2022-10-13T04:10:11.471Z,1013.17
2022-10-13T04:11:10.033Z,1013.15
2022-10-13T04:12:10.055Z,1013.19
2022-10-13T04:13:10.071Z,1013.19
2022-10-13T04:14:10.093Z,1013.16
2022-10-13T04:15:10.122Z,1013.18
2022-10-13T04:16:10.153Z,1013.14
2022-10-13T04:17:10.164Z,1013.13
2022-10-13T04:18:10.180Z,1013.14
2022-10-13T04:19:10.199Z,1013.19
2022-10-13T04:20:10.222Z,1013.17
2022-10-13T04:21:10.246Z,1013.21
2022-10-13T04:22:10.264Z,1013.16
2022-10-13T04:23:10.287Z,1013.18
2022-10-13T04:24:10.306Z,1013.16
2022-10-13T04:25:10.398Z,1013.15
2022-10-13T04:26:10.352Z,1013.20
2022-10-13T04:27:10.374Z,1013.14
2022-10-13T04:28:10.395Z,1013.15
2022-10-13T04:29:10.413Z,1013.16
2022-10-13T04:30:13.391Z,1013.15
2022-10-13T04:31:10.458Z,1013.15
2022-10-13T04:32:10.486Z,1013.09
2022-10-13T04:33:10.497Z,1013.08
2022-10-13T04:34:10.519Z,1013.09
2022-10-13T04:35:10.556Z,1013.14
2022-10-13T04:36:10.566Z,1013.10
2022-10-13T04:37:10.584Z,1013.06
2022-10-13T04:38:10.609Z,1013.03
2022-10-13T04:39:10.630Z,1013.03
2022-10-13T04:40:10.648Z,1013.02
2022-10-13T04:41:10.676Z,1013.01
2022-10-13T04:42:10.750Z,1013.03
2022-10-13T04:43:10.711Z,1013.01
2022-10-13T04:44:10.748Z,1013.00
2022-10-13T04:45:10.755Z,1012.98
2022-10-13T04:46:17.945Z,1012.95
2022-10-13T04:48:15.266Z,1012.95
2022-10-13T04:49:14.810Z,1012.96
2022-10-13T04:51:18.835Z,1012.97
2022-10-13T04:52:19.305Z,1012.97
2022-10-13T04:54:23.318Z,1012.94
2022-10-13T04:55:22.861Z,1012.91
2022-10-13T04:57:26.893Z,1012.92
2022-10-13T04:58:26.905Z,1012.84
2022-10-13T05:00:31.428Z,1012.85
2022-10-13T05:01:30.935Z,1012.79
2022-10-13T05:03:34.948Z,1012.84
2022-10-13T05:04:34.961Z,1012.81
2022-10-13T05:06:58.859Z,1012.70
2022-10-13T05:07:38.983Z,1012.72
2022-10-13T05:09:43.009Z,1012.70
2022-10-13T05:10:43.016Z,1012.68
2022-10-13T05:12:36.497Z,1012.65
2022-10-13T05:13:36.030Z,1012.67
2022-10-13T05:15:40.044Z,1012.69
2022-10-13T05:16:40.055Z,1012.64
2022-10-13T05:18:44.558Z,1012.60
2022-10-13T05:19:44.091Z,1012.62
2022-10-13T05:21:48.117Z,1012.58
2022-10-13T05:22:48.137Z,1012.58
2022-10-13T05:24:52.620Z,1012.56
2022-10-13T05:25:52.178Z,1012.64
2022-10-13T05:27:56.201Z,1012.60
2022-10-13T05:28:56.208Z,1012.63
2022-10-13T05:43:01.648Z,1012.64
2022-10-13T05:43:59.691Z,1012.61
2022-10-13T05:46:03.703Z,1012.55
2022-10-13T05:47:07.383Z,1012.52
2022-10-13T05:49:08.206Z,1012.50
2022-10-13T05:50:07.746Z,1012.54
2022-10-13T05:52:00.687Z,1012.59
2022-10-13T05:53:00.695Z,1012.62
2022-10-13T05:55:06.683Z,1012.64
2022-10-13T05:56:04.761Z,1012.63
2022-10-13T05:58:08.777Z,1012.61
2022-10-13T05:59:08.785Z,1012.60
2022-10-13T06:01:13.272Z,1012.63
2022-10-13T06:02:13.038Z,1012.63
2022-10-13T06:04:17.037Z,1012.61
2022-10-13T06:05:17.052Z,1012.60
2022-10-13T06:07:21.539Z,1012.55
2022-10-13T06:08:21.092Z,1012.61
2022-10-13T06:10:25.101Z,1012.58
2022-10-13T06:11:25.114Z,1012.58
2022-10-13T06:13:29.611Z,1012.47
2022-10-13T06:14:29.134Z,1012.46
2022-10-13T06:16:33.156Z,1012.43
2022-10-13T06:17:33.164Z,1012.46
2022-10-13T06:19:39.154Z,1012.45
2022-10-13T06:20:37.197Z,1012.41
2022-10-13T06:22:30.123Z,1012.40
2022-10-13T06:23:30.135Z,1012.41
2022-10-13T06:25:34.622Z,1012.44
2022-10-13T06:26:34.163Z,1012.38
2022-10-13T06:28:38.219Z,1012.40
2022-10-13T06:29:38.187Z,1012.42
2022-10-13T06:31:42.674Z,1012.42
2022-10-13T06:32:42.216Z,1012.41
2022-10-13T06:34:46.239Z,1012.36
2022-10-13T06:35:46.251Z,1012.36
2022-10-13T06:37:50.752Z,1012.37
2022-10-13T06:38:50.280Z,1012.34
2022-10-13T06:40:54.307Z,1012.34
2022-10-13T06:41:54.310Z,1012.28
2022-10-13T06:52:53.825Z,1012.37
2022-10-13T06:53:31.855Z,1012.38
2022-10-13T06:55:35.854Z,1012.39
2022-10-13T06:56:35.864Z,1012.37
2022-10-13T06:58:40.351Z,1012.44
2022-10-13T06:59:39.892Z,1012.40
2022-10-13T07:01:43.900Z,1012.33
2022-10-13T07:02:43.918Z,1012.30
2022-10-13T07:13:23.438Z,1012.41
2022-10-13T07:14:21.457Z,1012.42
2022-10-13T07:16:25.472Z,1012.38
2022-10-13T07:17:25.491Z,1012.38
2022-10-13T07:19:29.975Z,1012.35
2022-10-13T07:20:29.524Z,1012.39
2022-10-13T07:21:29.539Z,1012.38
2022-10-13T07:22:29.565Z,1012.39
2022-10-13T07:23:29.596Z,1012.35
2022-10-13T07:24:29.603Z,1012.36
2022-10-13T07:25:29.631Z,1012.31
2022-10-13T07:26:29.650Z,1012.36
2022-10-13T07:27:29.674Z,1012.40
2022-10-13T07:28:29.749Z,1012.41
2022-10-13T07:29:29.714Z,1012.36
2022-10-13T07:30:29.745Z,1012.33
2022-10-13T07:31:29.764Z,1012.42
2022-10-13T07:32:29.789Z,1012.42
2022-10-13T07:33:29.806Z,1012.40
2022-10-13T07:34:29.830Z,1012.42
2022-10-13T07:35:31.013Z,1012.40
2022-10-13T07:36:29.882Z,1012.35
2022-10-13T07:37:29.900Z,1012.35
2022-10-13T07:38:29.945Z,1012.36
2022-10-13T07:39:29.951Z,1012.37
2022-10-13T07:40:29.968Z,1012.40
2022-10-13T07:41:29.987Z,1012.43
2022-10-13T07:42:30.012Z,1012.40
2022-10-13T07:43:30.039Z,1012.44
2022-10-13T07:44:30.066Z,1012.47
2022-10-13T07:45:30.081Z,1012.48
2022-10-13T07:46:30.105Z,1012.53
2022-10-13T07:47:30.125Z,1012.50
2022-10-13T07:48:30.146Z,1012.48
2022-10-13T07:49:30.171Z,1012.50
2022-10-13T07:50:30.195Z,1012.44
2022-10-13T07:51:30.219Z,1012.40
2022-10-13T07:52:30.241Z,1012.43
2022-10-13T07:53:30.265Z,1012.40
2022-10-13T07:54:30.285Z,1012.38
2022-10-13T07:55:30.308Z,1012.39
2022-10-13T07:56:30.331Z,1012.46
2022-10-13T07:57:30.358Z,1012.48
2022-10-13T07:58:30.377Z,1012.47
2022-10-13T07:59:30.399Z,1012.44
2022-10-13T08:00:30.432Z,1012.41
2022-10-13T08:01:30.491Z,1012.37
2022-10-13T08:02:30.476Z,1012.39
2022-10-13T08:03:30.540Z,1012.39
2022-10-13T08:04:30.517Z,1012.41
2022-10-13T08:05:30.538Z,1012.45
2022-10-13T08:06:30.594Z,1012.42
2022-10-13T08:07:30.593Z,1012.40
2022-10-13T08:08:30.609Z,1012.35
2022-10-13T08:09:30.643Z,1012.39
2022-10-13T08:10:30.659Z,1012.38
2022-10-13T08:11:30.678Z,1012.45
2022-10-13T08:12:30.711Z,1012.46
2022-10-13T08:13:30.726Z,1012.42
2022-10-13T08:14:30.926Z,1012.42
2022-10-13T08:15:30.776Z,1012.43
2022-10-13T08:16:30.800Z,1012.43
2022-10-13T08:17:30.822Z,1012.40
2022-10-13T08:18:30.842Z,1012.43
2022-10-13T08:19:30.864Z,1012.46
2022-10-13T08:20:40.956Z,1012.43
2022-10-13T08:22:00.575Z,1012.42
2022-10-13T08:22:30.942Z,1012.41
2022-10-13T08:23:30.963Z,1012.43
2022-10-13T08:24:30.986Z,1012.41
2022-10-13T08:25:31.010Z,1012.42
2022-10-13T08:26:31.035Z,1012.44
2022-10-13T08:27:49.772Z,1012.44
2022-10-13T08:28:31.136Z,1012.41
2022-10-13T08:29:31.137Z,1012.39
2022-10-13T08:30:31.278Z,1012.42
2022-10-13T08:31:31.537Z,1012.42
2022-10-13T08:32:31.184Z,1012.44
2022-10-13T08:33:31.204Z,1012.45
2022-10-13T08:34:31.225Z,1012.44
2022-10-13T08:35:34.950Z,1012.43
2022-10-13T08:36:31.275Z,1012.44
2022-10-13T08:37:31.321Z,1012.41
2022-10-13T08:38:31.332Z,1012.40
2022-10-13T08:39:31.349Z,1012.41
2022-10-13T08:40:31.376Z,1012.41
2022-10-13T08:41:31.403Z,1012.41
2022-10-13T08:42:31.426Z,1012.45
2022-10-13T08:43:31.459Z,1012.43
2022-10-13T08:45:46.963Z,1012.38
2022-10-13T08:46:31.529Z,1012.42
2022-10-13T08:47:31.557Z,1012.42
2022-10-13T08:48:31.587Z,1012.44
2022-10-13T08:49:31.610Z,1012.39
2022-10-13T08:50:31.629Z,1012.37
2022-10-13T08:51:31.660Z,1012.39
2022-10-13T08:52:31.680Z,1012.44
2022-10-13T08:53:31.706Z,1012.43
2022-10-13T08:54:31.734Z,1012.41
2022-10-13T08:55:31.762Z,1012.40
2022-10-13T08:56:31.783Z,1012.43
2022-10-13T08:57:31.809Z,1012.42
2022-10-13T08:58:31.839Z,1012.37
2022-10-13T08:59:31.859Z,1012.38
2022-10-13T09:00:31.889Z,1012.36
2022-10-13T09:01:31.980Z,1012.36
2022-10-13T09:02:31.942Z,1012.37
2022-10-13T09:03:31.963Z,1012.38
2022-10-13T09:04:32.114Z,1012.38
2022-10-13T09:05:32.019Z,1012.31
2022-10-13T09:06:32.070Z,1012.33
2022-10-13T09:07:32.069Z,1012.32
2022-10-13T09:08:32.100Z,1012.31
2022-10-13T09:09:32.121Z,1012.31
2022-10-13T09:10:32.147Z,1012.34
2022-10-13T09:11:32.167Z,1012.35
2022-10-13T09:12:32.202Z,1012.32
2022-10-13T09:13:32.229Z,1012.38
2022-10-13T09:14:32.249Z,1012.33
2022-10-13T09:15:32.270Z,1012.32
2022-10-13T09:16:32.304Z,1012.38
2022-10-13T09:17:32.330Z,1012.33
2022-10-13T09:18:32.372Z,1012.33
2022-10-13T09:19:32.382Z,1012.32
2022-10-13T09:20:32.427Z,1012.32
2022-10-13T09:21:32.430Z,1012.29
2022-10-13T09:22:32.457Z,1012.32
2022-10-13T09:23:32.478Z,1012.28
2022-10-13T09:24:32.509Z,1012.29
2022-10-13T09:25:32.533Z,1012.28
2022-10-13T09:26:32.558Z,1012.31
2022-10-13T09:27:32.588Z,1012.24
2022-10-13T09:28:32.655Z,1012.24
2022-10-13T09:29:32.643Z,1012.18
2022-10-13T09:30:32.665Z,1012.21
2022-10-13T09:31:32.694Z,1012.21
2022-10-13T09:32:32.716Z,1012.22
2022-10-13T09:33:32.742Z,1012.20
2022-10-13T09:34:32.771Z,1012.23
2022-10-13T09:35:32.793Z,1012.21
2022-10-13T09:36:32.845Z,1012.21
2022-10-13T09:37:32.848Z,1012.23
2022-10-13T09:38:32.876Z,1012.24
2022-10-13T09:39:32.900Z,1012.23
2022-10-13T09:40:33.037Z,1012.21
2022-10-13T09:41:32.953Z,1012.18
2022-10-13T09:42:32.977Z,1012.19
2022-10-13T09:43:33.006Z,1012.16
2022-10-13T09:44:33.033Z,1012.21
2022-10-13T09:45:33.053Z,1012.18
2022-10-13T09:46:33.090Z,1012.19
2022-10-13T09:47:33.108Z,1012.19
2022-10-13T09:48:33.140Z,1012.22
2022-10-13T09:49:33.161Z,1012.18
2022-10-13T09:50:33.199Z,1012.20
2022-10-13T09:51:33.218Z,1012.21
2022-10-13T09:52:33.242Z,1012.17
2022-10-13T09:53:33.267Z,1012.16
2022-10-13T09:54:33.295Z,1012.17
2022-10-13T09:55:33.323Z,1012.14
2022-10-13T09:56:33.344Z,1012.17
2022-10-13T09:57:33.373Z,1012.13
2022-10-13T09:58:33.451Z,1012.10
2022-10-13T09:59:33.431Z,1012.03
2022-10-13T10:00:33.461Z,1012.06
2022-10-13T10:01:33.480Z,1012.07
2022-10-13T10:02:33.892Z,1012.03
2022-10-13T10:03:33.554Z,1012.08
2022-10-13T10:04:33.562Z,1012.05
2022-10-13T10:05:33.589Z,1012.12
2022-10-13T10:06:33.616Z,1012.06
2022-10-13T10:07:33.646Z,1012.09
2022-10-13T10:08:44.725Z,1012.07
2022-10-13T10:09:33.699Z,1012.05
2022-10-13T10:10:33.725Z,1012.04
2022-10-13T10:11:33.745Z,1012.04
2022-10-13T10:12:33.774Z,1012.05
2022-10-13T10:13:33.801Z,1012.02
2022-10-13T10:14:33.833Z,1011.90
2022-10-13T10:15:33.857Z,1011.91
2022-10-13T10:16:33.877Z,1011.92
2022-10-13T10:17:33.907Z,1011.87
2022-10-13T10:18:33.935Z,1011.85
2022-10-13T10:19:33.963Z,1011.88
2022-10-13T10:20:33.989Z,1011.84
2022-10-13T10:21:34.016Z,1011.84
2022-10-13T10:22:34.052Z,1011.88
2022-10-13T10:23:34.126Z,1011.88
2022-10-13T10:24:34.195Z,1011.87
2022-10-13T10:25:34.128Z,1011.85
2022-10-13T10:26:34.148Z,1011.89
2022-10-13T10:27:34.180Z,1011.88
2022-10-13T10:28:34.260Z,1011.88
2022-10-13T10:29:34.238Z,1011.88
2022-10-13T10:30:34.263Z,1011.90
2022-10-13T10:31:34.289Z,1011.88
2022-10-13T10:32:34.321Z,1011.83
2022-10-13T10:33:34.343Z,1011.86
2022-10-13T10:34:34.389Z,1011.87
2022-10-13T10:35:34.394Z,1011.86
2022-10-13T10:36:34.424Z,1011.84
2022-10-13T10:37:34.449Z,1011.82
2022-10-13T10:38:34.472Z,1011.80
2022-10-13T10:39:34.502Z,1011.82
2022-10-13T10:40:34.557Z,1011.84
2022-10-13T10:41:34.555Z,1011.86
2022-10-13T10:42:34.583Z,1011.85
2022-10-13T10:43:34.611Z,1011.81
2022-10-13T10:44:34.729Z,1011.79
2022-10-13T10:45:34.667Z,1011.81
2022-10-13T10:46:34.693Z,1011.77
2022-10-13T10:47:34.717Z,1011.74
2022-10-13T10:48:34.745Z,1011.71
2022-10-13T10:49:34.768Z,1011.70
2022-10-13T10:50:34.796Z,1011.66
2022-10-13T10:51:34.821Z,1011.69
2022-10-13T10:52:34.851Z,1011.60
2022-10-13T10:53:34.876Z,1011.60
2022-10-13T10:54:34.903Z,1011.56
2022-10-13T10:55:34.933Z,1011.55
2022-10-13T10:56:34.960Z,1011.53
2022-10-13T10:57:34.981Z,1011.53
2022-10-13T10:58:35.011Z,1011.52
2022-10-13T10:59:35.034Z,1011.54
2022-10-13T11:00:35.074Z,1011.52
2022-10-13T11:01:35.165Z,1011.53
2022-10-13T11:02:35.115Z,1011.44
2022-10-13T11:03:35.148Z,1011.43
2022-10-13T11:04:35.166Z,1011.47
2022-10-13T11:05:35.199Z,1011.47
2022-10-13T11:06:35.224Z,1011.49
2022-10-13T11:07:35.254Z,1011.47
2022-10-13T11:08:35.276Z,1011.43
2022-10-13T11:09:35.305Z,1011.41
2022-10-13T11:10:35.330Z,1011.39
2022-10-13T11:11:37.730Z,1011.41
2022-10-13T11:12:35.387Z,1011.41
2022-10-13T11:13:35.412Z,1011.40
2022-10-13T11:14:35.445Z,1011.42
2022-10-13T11:15:35.469Z,1011.40
2022-10-13T11:16:35.494Z,1011.40
2022-10-13T11:17:35.526Z,1011.40
2022-10-13T11:18:35.554Z,1011.39
2022-10-13T11:19:35.579Z,1011.37
2022-10-13T11:20:35.611Z,1011.31
2022-10-13T11:21:35.633Z,1011.30
2022-10-13T11:22:35.664Z,1011.24
2022-10-13T11:23:35.687Z,1011.25
2022-10-13T11:24:35.715Z,1011.31
2022-10-13T11:25:36.370Z,1011.29
2022-10-13T11:26:35.770Z,1011.26
2022-10-13T11:27:35.799Z,1011.30
2022-10-13T11:28:35.873Z,1011.31
2022-10-13T11:29:35.850Z,1011.26
2022-10-13T11:30:35.884Z,1011.25
2022-10-13T11:31:36.270Z,1011.26
2022-10-13T11:32:35.930Z,1011.26
2022-10-13T11:33:35.958Z,1011.25
2022-10-13T11:34:35.983Z,1011.29
2022-10-13T11:35:36.011Z,1011.26
2022-10-13T11:36:36.041Z,1011.24
2022-10-13T11:37:36.069Z,1011.24
2022-10-13T11:38:36.093Z,1011.24
2022-10-13T11:39:36.127Z,1011.20
2022-10-13T11:40:36.147Z,1011.19
2022-10-13T11:41:36.176Z,1011.18
2022-10-13T11:42:36.204Z,1011.18
2022-10-13T11:43:36.231Z,1011.17
2022-10-13T11:44:36.295Z,1011.14
2022-10-13T11:45:36.287Z,1011.15
2022-10-13T11:46:36.311Z,1011.07
2022-10-13T11:47:36.341Z,1011.12
2022-10-13T11:48:36.375Z,1011.09
2022-10-13T11:49:36.398Z,1011.09
2022-10-13T11:50:36.424Z,1011.10
2022-10-13T11:51:36.453Z,1011.10
2022-10-13T11:52:36.480Z,1011.09
2022-10-13T11:53:36.508Z,1011.07
2022-10-13T11:54:36.545Z,1011.07
2022-10-13T11:55:36.565Z,1011.06
2022-10-13T11:56:39.669Z,1011.05
2022-10-13T11:57:36.620Z,1011.08
2022-10-13T11:58:36.649Z,1011.06
2022-10-13T11:59:36.677Z,1011.05
2022-10-13T12:00:36.702Z,1011.03
2022-10-13T12:01:36.728Z,1011.01
2022-10-13T12:02:37.024Z,1011.00
2022-10-13T12:03:36.783Z,1010.98
2022-10-13T12:04:36.811Z,1010.96
2022-10-13T12:05:36.840Z,1010.96
2022-10-13T12:06:36.868Z,1010.97
2022-10-13T12:07:36.903Z,1010.95
2022-10-13T12:08:36.926Z,1010.88
2022-10-13T12:09:36.963Z,1010.89
2022-10-13T12:10:36.985Z,1010.90
2022-10-13T12:11:37.010Z,1010.87
2022-10-13T12:12:37.039Z,1010.86
2022-10-13T12:13:37.068Z,1010.82
2022-10-13T12:15:37.124Z,1010.81
2022-10-13T12:16:37.153Z,1010.78
2022-10-13T12:17:37.180Z,1010.74
2022-10-13T12:18:37.214Z,1010.77
2022-10-13T12:19:37.239Z,1010.78
2022-10-13T12:20:37.267Z,1010.78
2022-10-13T12:21:37.294Z,1010.76
2022-10-13T12:22:40.262Z,1010.74
2022-10-13T12:23:37.351Z,1010.70
2022-10-13T12:24:37.380Z,1010.70
2022-10-13T12:25:37.406Z,1010.72
2022-10-13T12:26:37.439Z,1010.71
2022-10-13T12:27:37.467Z,1010.70
2022-10-13T12:28:37.551Z,1010.69
2022-10-13T12:29:37.586Z,1010.66
2022-10-13T12:30:37.554Z,1010.65
2022-10-13T12:31:37.578Z,1010.65
2022-10-13T12:32:37.614Z,1010.59
2022-10-13T12:33:37.640Z,1010.67
2022-10-13T12:34:37.670Z,1010.64
2022-10-13T12:35:37.701Z,1010.62
2022-10-13T12:36:37.721Z,1010.60
2022-10-13T12:37:37.755Z,1010.59
2022-10-13T12:38:37.782Z,1010.55
2022-10-13T12:39:37.820Z,1010.56
2022-10-13T12:40:37.835Z,1010.52
2022-10-13T12:41:37.865Z,1010.54
2022-10-13T12:42:37.891Z,1010.53
2022-10-13T12:43:37.918Z,1010.51
2022-10-13T12:44:37.948Z,1010.49
2022-10-13T12:45:37.979Z,1010.42
2022-10-13T12:46:38.002Z,1010.41
2022-10-13T12:47:38.056Z,1010.44
2022-10-13T12:48:38.078Z,1010.38
2022-10-13T12:49:38.105Z,1010.37
2022-10-13T12:50:38.119Z,1010.41
2022-10-13T12:51:38.142Z,1010.41
2022-10-13T12:52:38.173Z,1010.44
2022-10-13T12:53:38.204Z,1010.42
2022-10-13T12:54:38.235Z,1010.44
2022-10-13T12:55:38.259Z,1010.40
2022-10-13T12:56:38.286Z,1010.43
2022-10-13T12:57:38.336Z,1010.46
2022-10-13T12:58:38.345Z,1010.42
2022-10-13T12:59:38.373Z,1010.43
2022-10-13T13:00:38.490Z,1010.42
2022-10-13T13:01:38.430Z,1010.44
2022-10-13T13:02:38.458Z,1010.34
2022-10-13T13:03:38.487Z,1010.45
2022-10-13T13:04:38.515Z,1010.48
2022-10-13T13:05:38.538Z,1010.45
2022-10-13T13:06:38.580Z,1010.43
2022-10-13T13:07:38.604Z,1010.46
2022-10-13T13:08:38.627Z,1010.41
2022-10-13T13:09:38.667Z,1010.42
2022-10-13T13:10:38.680Z,1010.45
2022-10-13T13:11:38.718Z,1010.44
2022-10-13T13:12:38.738Z,1010.44
2022-10-13T13:13:38.769Z,1010.46
2022-10-13T13:14:38.801Z,1010.46
2022-10-13T13:15:38.829Z,1010.49
2022-10-13T13:16:38.854Z,1010.48
2022-10-13T13:17:57.333Z,1010.47
2022-10-13T13:18:38.909Z,1010.46
2022-10-13T13:19:38.937Z,1010.46
2022-10-13T13:20:38.968Z,1010.46
2022-10-13T13:21:38.991Z,1010.46
2022-10-13T13:22:39.044Z,1010.47
2022-10-13T13:23:39.059Z,1010.47
2022-10-13T13:24:40.672Z,1010.44
2022-10-13T13:25:39.108Z,1010.44
2022-10-13T13:26:39.133Z,1010.43
2022-10-13T13:27:39.163Z,1010.44
2022-10-13T13:28:39.306Z,1010.41
2022-10-13T13:29:39.221Z,1010.41
2022-10-13T13:30:39.260Z,1010.40
2022-10-13T13:31:39.276Z,1010.39
2022-10-13T13:32:39.301Z,1010.39
2022-10-13T13:33:39.331Z,1010.34